sensor_id;sensor_type;location;lat;lon;timestamp;temperature;humidity
770;DHT22;368;48.698;9.116;2023-11-21T00:01:03;7.20;99.90
770;DHT22;368;48.698;9.116;2023-11-21T00:03:31;7.40;99.90
770;DHT22;368;48.698;9.116;2023-11-21T00:05:58;7.50;99.90
770;DHT22;368;48.698;9.116;2023-11-21T00:08:26;7.20;99.90
770;DHT22;368;48.698;9.116;2023-11-21T00:10:53;7.30;99.90
770;DHT22;368;48.698;9.116;2023-11-21T00:13:20;7.30;99.90
770;DHT22;368;48.698;9.116;2023-11-21T00:15:47;7.30;99.90
770;DHT22;368;48.698;9.116;2023-11-21T00:18:15;7.40;99.90
770;DHT22;368;48.698;9.116;2023-11-21T00:20:43;7.30;99.90
770;DHT22;368;48.698;9.116;2023-11-21T00:23:10;7.20;99.90
770;DHT22;368;48.698;9.116;2023-11-21T00:25:37;7.60;99.90
770;DHT22;368;48.698;9.116;2023-11-21T00:28:04;7.40;99.90
770;DHT22;368;48.698;9.116;2023-11-21T00:30:31;7.50;99.90
770;DHT22;368;48.698;9.116;2023-11-21T00:32:58;7.30;99.90
770;DHT22;368;48.698;9.116;2023-11-21T00:35:25;7.60;99.90
770;DHT22;368;48.698;9.116;2023-11-21T00:37:53;7.90;99.90
770;DHT22;368;48.698;9.116;2023-11-21T00:40:20;7.60;99.90
770;DHT22;368;48.698;9.116;2023-11-21T00:42:47;7.60;99.90
770;DHT22;368;48.698;9.116;2023-11-21T00:45:14;7.60;99.90
770;DHT22;368;48.698;9.116;2023-11-21T00:47:41;7.70;99.90
770;DHT22;368;48.698;9.116;2023-11-21T00:50:09;7.50;99.90
770;DHT22;368;48.698;9.116;2023-11-21T00:52:36;7.40;99.90
770;DHT22;368;48.698;9.116;2023-11-21T00:55:04;7.60;99.90
770;DHT22;368;48.698;9.116;2023-11-21T00:57:33;7.30;99.90
770;DHT22;368;48.698;9.116;2023-11-21T01:00:00;7.30;99.90
770;DHT22;368;48.698;9.116;2023-11-21T01:02:26;7.50;99.90
770;DHT22;368;48.698;9.116;2023-11-21T01:04:54;7.50;99.90
770;DHT22;368;48.698;9.116;2023-11-21T01:07:21;7.40;99.90
770;DHT22;368;48.698;9.116;2023-11-21T01:09:48;7.40;99.90
770;DHT22;368;48.698;9.116;2023-11-21T01:12:16;7.60;99.90
770;DHT22;368;48.698;9.116;2023-11-21T01:14:44;7.60;99.90
770;DHT22;368;48.698;9.116;2023-11-21T01:17:11;7.40;99.90
770;DHT22;368;48.698;9.116;2023-11-21T01:19:38;7.40;99.90
770;DHT22;368;48.698;9.116;2023-11-21T01:22:05;7.70;99.90
770;DHT22;368;48.698;9.116;2023-11-21T01:24:32;7.50;99.90
770;DHT22;368;48.698;9.116;2023-11-21T01:26:58;7.40;99.90
770;DHT22;368;48.698;9.116;2023-11-21T01:29:27;7.60;99.90
770;DHT22;368;48.698;9.116;2023-11-21T01:31:54;7.70;99.90
770;DHT22;368;48.698;9.116;2023-11-21T01:34:23;7.50;99.90
770;DHT22;368;48.698;9.116;2023-11-21T01:36:50;7.50;99.90
770;DHT22;368;48.698;9.116;2023-11-21T01:39:17;7.80;99.90
770;DHT22;368;48.698;9.116;2023-11-21T01:41:49;7.50;99.90
770;DHT22;368;48.698;9.116;2023-11-21T01:44:15;7.80;99.90
770;DHT22;368;48.698;9.116;2023-11-21T01:46:44;7.70;99.90
770;DHT22;368;48.698;9.116;2023-11-21T01:49:12;7.60;99.90
770;DHT22;368;48.698;9.116;2023-11-21T01:51:40;7.70;99.90
770;DHT22;368;48.698;9.116;2023-11-21T01:54:08;7.60;99.90
770;DHT22;368;48.698;9.116;2023-11-21T01:56:34;7.80;99.90
770;DHT22;368;48.698;9.116;2023-11-21T01:59:02;7.70;99.90
770;DHT22;368;48.698;9.116;2023-11-21T02:01:29;7.50;99.90
770;DHT22;368;48.698;9.116;2023-11-21T02:03:57;7.50;99.90
770;DHT22;368;48.698;9.116;2023-11-21T02:06:24;7.70;99.90
770;DHT22;368;48.698;9.116;2023-11-21T02:08:51;7.50;99.90
770;DHT22;368;48.698;9.116;2023-11-21T02:11:18;7.50;99.90
770;DHT22;368;48.698;9.116;2023-11-21T02:13:45;7.50;99.90
770;DHT22;368;48.698;9.116;2023-11-21T02:16:12;7.70;99.90
770;DHT22;368;48.698;9.116;2023-11-21T02:18:40;7.50;99.90
770;DHT22;368;48.698;9.116;2023-11-21T02:21:08;7.50;99.90
770;DHT22;368;48.698;9.116;2023-11-21T02:23:37;7.50;99.90
770;DHT22;368;48.698;9.116;2023-11-21T02:26:07;7.40;99.90
770;DHT22;368;48.698;9.116;2023-11-21T02:28:35;7.60;99.90
770;DHT22;368;48.698;9.116;2023-11-21T02:31:02;7.40;99.90
770;DHT22;368;48.698;9.116;2023-11-21T02:33:30;7.40;99.90
770;DHT22;368;48.698;9.116;2023-11-21T02:36:00;7.50;99.90
770;DHT22;368;48.698;9.116;2023-11-21T02:38:26;7.50;99.90
770;DHT22;368;48.698;9.116;2023-11-21T02:40:57;7.10;99.90
770;DHT22;368;48.698;9.116;2023-11-21T02:43:24;7.40;99.90
770;DHT22;368;48.698;9.116;2023-11-21T02:45:50;7.40;99.90
770;DHT22;368;48.698;9.116;2023-11-21T02:48:17;7.30;99.90
770;DHT22;368;48.698;9.116;2023-11-21T02:50:44;7.10;99.90
770;DHT22;368;48.698;9.116;2023-11-21T02:53:11;7.40;99.90
770;DHT22;368;48.698;9.116;2023-11-21T02:55:38;7.10;99.90
770;DHT22;368;48.698;9.116;2023-11-21T02:58:06;7.00;99.90
770;DHT22;368;48.698;9.116;2023-11-21T03:00:33;7.10;99.90
770;DHT22;368;48.698;9.116;2023-11-21T03:02:59;7.20;99.90
770;DHT22;368;48.698;9.116;2023-11-21T03:05:26;7.40;99.90
770;DHT22;368;48.698;9.116;2023-11-21T03:07:54;7.50;99.90
770;DHT22;368;48.698;9.116;2023-11-21T03:10:21;7.10;99.90
770;DHT22;368;48.698;9.116;2023-11-21T03:12:48;7.10;99.90
770;DHT22;368;48.698;9.116;2023-11-21T03:15:16;7.10;99.90
770;DHT22;368;48.698;9.116;2023-11-21T03:17:43;7.30;99.90
770;DHT22;368;48.698;9.116;2023-11-21T03:20:10;7.10;99.90
770;DHT22;368;48.698;9.116;2023-11-21T03:22:39;7.00;99.90
770;DHT22;368;48.698;9.116;2023-11-21T03:25:07;7.00;99.90
770;DHT22;368;48.698;9.116;2023-11-21T03:27:36;7.10;99.90
770;DHT22;368;48.698;9.116;2023-11-21T03:30:05;6.90;99.90
770;DHT22;368;48.698;9.116;2023-11-21T03:32:34;6.90;99.90
770;DHT22;368;48.698;9.116;2023-11-21T03:35:02;6.90;99.90
770;DHT22;368;48.698;9.116;2023-11-21T03:37:29;6.80;99.90
770;DHT22;368;48.698;9.116;2023-11-21T03:39:56;7.00;99.90
770;DHT22;368;48.698;9.116;2023-11-21T03:42:23;6.80;99.90
770;DHT22;368;48.698;9.116;2023-11-21T03:44:51;7.20;99.90
770;DHT22;368;48.698;9.116;2023-11-21T03:47:17;7.20;99.90
770;DHT22;368;48.698;9.116;2023-11-21T03:49:46;7.30;99.90
770;DHT22;368;48.698;9.116;2023-11-21T03:52:12;7.40;99.90
770;DHT22;368;48.698;9.116;2023-11-21T03:54:39;7.30;99.90
770;DHT22;368;48.698;9.116;2023-11-21T03:57:06;7.20;99.90
770;DHT22;368;48.698;9.116;2023-11-21T03:59:34;7.40;99.90
770;DHT22;368;48.698;9.116;2023-11-21T04:02:01;7.10;99.90
770;DHT22;368;48.698;9.116;2023-11-21T04:04:28;7.30;99.90
770;DHT22;368;48.698;9.116;2023-11-21T04:06:56;7.40;99.90
770;DHT22;368;48.698;9.116;2023-11-21T04:09:23;7.10;99.90
770;DHT22;368;48.698;9.116;2023-11-21T04:11:51;7.10;99.90
770;DHT22;368;48.698;9.116;2023-11-21T04:14:17;7.40;99.90
770;DHT22;368;48.698;9.116;2023-11-21T04:16:44;7.40;99.90
770;DHT22;368;48.698;9.116;2023-11-21T04:19:11;7.40;99.90
770;DHT22;368;48.698;9.116;2023-11-21T04:21:40;7.50;99.90
770;DHT22;368;48.698;9.116;2023-11-21T04:24:08;7.10;99.90
770;DHT22;368;48.698;9.116;2023-11-21T04:26:35;7.30;99.90
770;DHT22;368;48.698;9.116;2023-11-21T04:29:02;7.30;99.90
770;DHT22;368;48.698;9.116;2023-11-21T04:31:30;7.00;99.90
770;DHT22;368;48.698;9.116;2023-11-21T04:33:57;7.20;99.90
770;DHT22;368;48.698;9.116;2023-11-21T04:36:24;7.30;99.90
770;DHT22;368;48.698;9.116;2023-11-21T04:38:51;7.20;99.90
770;DHT22;368;48.698;9.116;2023-11-21T04:41:19;7.30;99.90
770;DHT22;368;48.698;9.116;2023-11-21T04:43:46;7.20;99.90
770;DHT22;368;48.698;9.116;2023-11-21T04:46:12;7.10;99.90
770;DHT22;368;48.698;9.116;2023-11-21T04:48:39;7.10;99.90
770;DHT22;368;48.698;9.116;2023-11-21T04:51:06;7.10;99.90
770;DHT22;368;48.698;9.116;2023-11-21T04:53:33;7.40;99.90
770;DHT22;368;48.698;9.116;2023-11-21T04:56:00;7.00;99.90
770;DHT22;368;48.698;9.116;2023-11-21T04:58:28;7.40;99.90
770;DHT22;368;48.698;9.116;2023-11-21T05:00:56;7.40;99.90
770;DHT22;368;48.698;9.116;2023-11-21T05:03:22;7.10;99.90
770;DHT22;368;48.698;9.116;2023-11-21T05:05:49;7.20;99.90
770;DHT22;368;48.698;9.116;2023-11-21T05:08:16;7.20;99.90
770;DHT22;368;48.698;9.116;2023-11-21T05:10:44;7.30;99.90
770;DHT22;368;48.698;9.116;2023-11-21T05:13:11;7.00;99.90
770;DHT22;368;48.698;9.116;2023-11-21T05:15:39;7.00;99.90
770;DHT22;368;48.698;9.116;2023-11-21T05:18:06;6.80;99.90
770;DHT22;368;48.698;9.116;2023-11-21T05:20:33;7.20;99.90
770;DHT22;368;48.698;9.116;2023-11-21T05:23:00;7.00;99.90
770;DHT22;368;48.698;9.116;2023-11-21T05:25:27;6.90;99.90
770;DHT22;368;48.698;9.116;2023-11-21T05:27:54;7.10;99.90
770;DHT22;368;48.698;9.116;2023-11-21T05:30:21;6.90;99.90
770;DHT22;368;48.698;9.116;2023-11-21T05:32:49;7.20;99.90
770;DHT22;368;48.698;9.116;2023-11-21T05:35:16;7.00;99.90
770;DHT22;368;48.698;9.116;2023-11-21T05:37:44;6.80;99.90
770;DHT22;368;48.698;9.116;2023-11-21T05:40:11;6.90;99.90
770;DHT22;368;48.698;9.116;2023-11-21T05:42:39;7.00;99.90
770;DHT22;368;48.698;9.116;2023-11-21T05:45:07;7.10;99.90
770;DHT22;368;48.698;9.116;2023-11-21T05:47:37;6.90;99.90
770;DHT22;368;48.698;9.116;2023-11-21T05:50:07;7.00;99.90
770;DHT22;368;48.698;9.116;2023-11-21T05:52:38;7.00;99.90
770;DHT22;368;48.698;9.116;2023-11-21T05:55:05;7.20;99.90
770;DHT22;368;48.698;9.116;2023-11-21T05:57:33;7.10;99.90
770;DHT22;368;48.698;9.116;2023-11-21T06:00:02;6.80;99.90
770;DHT22;368;48.698;9.116;2023-11-21T06:02:36;6.90;99.90
770;DHT22;368;48.698;9.116;2023-11-21T06:05:06;7.10;99.90
770;DHT22;368;48.698;9.116;2023-11-21T06:07:33;6.90;99.90
770;DHT22;368;48.698;9.116;2023-11-21T06:10:01;6.90;99.90
770;DHT22;368;48.698;9.116;2023-11-21T06:12:28;7.00;99.90
770;DHT22;368;48.698;9.116;2023-11-21T06:14:55;7.10;99.90
770;DHT22;368;48.698;9.116;2023-11-21T06:17:22;7.00;99.90
770;DHT22;368;48.698;9.116;2023-11-21T06:19:50;6.90;99.90
770;DHT22;368;48.698;9.116;2023-11-21T06:22:19;7.00;99.90
770;DHT22;368;48.698;9.116;2023-11-21T06:24:47;6.70;99.90
770;DHT22;368;48.698;9.116;2023-11-21T06:27:13;7.00;99.90
770;DHT22;368;48.698;9.116;2023-11-21T06:29:41;6.70;99.90
770;DHT22;368;48.698;9.116;2023-11-21T06:32:08;6.70;99.90
770;DHT22;368;48.698;9.116;2023-11-21T06:34:35;6.70;99.90
770;DHT22;368;48.698;9.116;2023-11-21T06:37:02;6.60;99.90
770;DHT22;368;48.698;9.116;2023-11-21T06:39:30;6.80;99.90
770;DHT22;368;48.698;9.116;2023-11-21T06:41:57;6.60;99.90
770;DHT22;368;48.698;9.116;2023-11-21T06:44:25;6.80;99.90
770;DHT22;368;48.698;9.116;2023-11-21T06:46:52;6.40;99.90
770;DHT22;368;48.698;9.116;2023-11-21T06:49:19;6.70;99.90
770;DHT22;368;48.698;9.116;2023-11-21T06:51:46;6.70;99.90
770;DHT22;368;48.698;9.116;2023-11-21T06:54:13;6.60;99.90
770;DHT22;368;48.698;9.116;2023-11-21T06:56:41;6.90;99.90
770;DHT22;368;48.698;9.116;2023-11-21T06:59:08;7.00;99.90
770;DHT22;368;48.698;9.116;2023-11-21T07:01:36;6.90;99.90
770;DHT22;368;48.698;9.116;2023-11-21T07:04:05;6.70;99.90
770;DHT22;368;48.698;9.116;2023-11-21T07:06:32;6.90;99.90
770;DHT22;368;48.698;9.116;2023-11-21T07:08:59;7.10;99.90
770;DHT22;368;48.698;9.116;2023-11-21T07:11:26;7.00;99.90
770;DHT22;368;48.698;9.116;2023-11-21T07:13:55;7.00;99.90
770;DHT22;368;48.698;9.116;2023-11-21T07:16:21;7.00;99.90
770;DHT22;368;48.698;9.116;2023-11-21T07:18:49;7.10;99.90
770;DHT22;368;48.698;9.116;2023-11-21T07:21:16;7.20;99.90
770;DHT22;368;48.698;9.116;2023-11-21T07:23:43;7.20;99.90
770;DHT22;368;48.698;9.116;2023-11-21T07:26:09;7.00;99.90
770;DHT22;368;48.698;9.116;2023-11-21T07:28:36;7.10;99.90
770;DHT22;368;48.698;9.116;2023-11-21T07:31:05;7.40;99.90
770;DHT22;368;48.698;9.116;2023-11-21T07:33:32;7.20;99.90
770;DHT22;368;48.698;9.116;2023-11-21T07:35:58;7.20;99.90
770;DHT22;368;48.698;9.116;2023-11-21T07:38:25;7.30;99.90
770;DHT22;368;48.698;9.116;2023-11-21T07:40:53;7.30;99.90
770;DHT22;368;48.698;9.116;2023-11-21T07:43:20;7.50;99.90
770;DHT22;368;48.698;9.116;2023-11-21T07:45:47;7.50;99.90
770;DHT22;368;48.698;9.116;2023-11-21T07:48:16;7.50;99.90
770;DHT22;368;48.698;9.116;2023-11-21T07:50:42;7.60;99.90
770;DHT22;368;48.698;9.116;2023-11-21T07:53:09;7.50;99.90
770;DHT22;368;48.698;9.116;2023-11-21T07:55:36;7.70;99.90
770;DHT22;368;48.698;9.116;2023-11-21T07:58:03;7.60;99.90
770;DHT22;368;48.698;9.116;2023-11-21T08:00:30;7.50;99.90
770;DHT22;368;48.698;9.116;2023-11-21T08:02:57;7.90;99.90
770;DHT22;368;48.698;9.116;2023-11-21T08:05:25;7.60;99.90
770;DHT22;368;48.698;9.116;2023-11-21T08:07:52;7.40;99.90
770;DHT22;368;48.698;9.116;2023-11-21T08:10:18;7.50;99.90
770;DHT22;368;48.698;9.116;2023-11-21T08:12:47;7.40;99.90
770;DHT22;368;48.698;9.116;2023-11-21T08:15:14;7.80;99.90
770;DHT22;368;48.698;9.116;2023-11-21T08:17:41;7.80;99.90
770;DHT22;368;48.698;9.116;2023-11-21T08:20:09;7.60;99.90
770;DHT22;368;48.698;9.116;2023-11-21T08:22:38;8.00;99.90
770;DHT22;368;48.698;9.116;2023-11-21T08:25:07;8.10;99.90
770;DHT22;368;48.698;9.116;2023-11-21T08:27:34;8.00;99.90
770;DHT22;368;48.698;9.116;2023-11-21T08:30:10;8.20;99.90
770;DHT22;368;48.698;9.116;2023-11-21T08:32:37;8.30;99.90
770;DHT22;368;48.698;9.116;2023-11-21T08:35:04;8.10;99.90
770;DHT22;368;48.698;9.116;2023-11-21T08:37:32;8.40;99.90
770;DHT22;368;48.698;9.116;2023-11-21T08:40:05;8.30;99.90
770;DHT22;368;48.698;9.116;2023-11-21T08:42:34;8.30;99.90
770;DHT22;368;48.698;9.116;2023-11-21T08:45:01;8.20;99.90
770;DHT22;368;48.698;9.116;2023-11-21T08:47:28;8.30;99.90
770;DHT22;368;48.698;9.116;2023-11-21T08:49:55;8.40;99.90
770;DHT22;368;48.698;9.116;2023-11-21T08:52:24;8.70;99.90
770;DHT22;368;48.698;9.116;2023-11-21T08:54:51;8.80;99.90
770;DHT22;368;48.698;9.116;2023-11-21T08:57:22;9.00;99.90
770;DHT22;368;48.698;9.116;2023-11-21T08:59:49;9.30;99.90
770;DHT22;368;48.698;9.116;2023-11-21T09:02:20;9.20;99.90
770;DHT22;368;48.698;9.116;2023-11-21T09:04:48;9.20;99.90
770;DHT22;368;48.698;9.116;2023-11-21T09:07:16;9.50;99.90
770;DHT22;368;48.698;9.116;2023-11-21T09:09:44;9.50;99.90
770;DHT22;368;48.698;9.116;2023-11-21T09:12:11;9.50;99.90
770;DHT22;368;48.698;9.116;2023-11-21T09:14:39;9.30;99.90
770;DHT22;368;48.698;9.116;2023-11-21T09:17:06;9.10;99.90
770;DHT22;368;48.698;9.116;2023-11-21T09:19:36;9.10;99.90
770;DHT22;368;48.698;9.116;2023-11-21T09:22:03;9.30;99.90
770;DHT22;368;48.698;9.116;2023-11-21T09:24:30;9.10;99.90
770;DHT22;368;48.698;9.116;2023-11-21T09:26:57;9.20;99.90
770;DHT22;368;48.698;9.116;2023-11-21T09:29:25;9.00;99.90
770;DHT22;368;48.698;9.116;2023-11-21T09:31:54;9.20;99.90
770;DHT22;368;48.698;9.116;2023-11-21T09:34:24;9.10;99.90
770;DHT22;368;48.698;9.116;2023-11-21T09:36:52;9.40;99.90
770;DHT22;368;48.698;9.116;2023-11-21T09:39:19;9.30;99.90
770;DHT22;368;48.698;9.116;2023-11-21T09:41:49;9.60;99.90
770;DHT22;368;48.698;9.116;2023-11-21T09:44:20;9.80;99.90
770;DHT22;368;48.698;9.116;2023-11-21T09:46:49;10.10;99.90
770;DHT22;368;48.698;9.116;2023-11-21T09:49:23;10.00;99.90
770;DHT22;368;48.698;9.116;2023-11-21T09:51:54;10.30;99.90
770;DHT22;368;48.698;9.116;2023-11-21T09:54:22;10.40;99.90
770;DHT22;368;48.698;9.116;2023-11-21T09:56:49;10.70;99.90
770;DHT22;368;48.698;9.116;2023-11-21T09:59:19;10.70;99.90
770;DHT22;368;48.698;9.116;2023-11-21T10:01:46;10.30;99.90
770;DHT22;368;48.698;9.116;2023-11-21T10:04:17;10.30;99.90
770;DHT22;368;48.698;9.116;2023-11-21T10:06:46;10.20;99.90
770;DHT22;368;48.698;9.116;2023-11-21T10:09:15;10.10;99.90
770;DHT22;368;48.698;9.116;2023-11-21T10:11:45;9.90;99.90
770;DHT22;368;48.698;9.116;2023-11-21T10:14:14;10.00;99.90
770;DHT22;368;48.698;9.116;2023-11-21T10:16:44;9.60;99.90
770;DHT22;368;48.698;9.116;2023-11-21T10:19:13;9.80;99.90
770;DHT22;368;48.698;9.116;2023-11-21T10:21:41;9.70;99.90
770;DHT22;368;48.698;9.116;2023-11-21T10:24:09;9.40;99.90
770;DHT22;368;48.698;9.116;2023-11-21T10:26:38;9.20;99.90
770;DHT22;368;48.698;9.116;2023-11-21T10:29:05;9.20;99.90
770;DHT22;368;48.698;9.116;2023-11-21T10:31:32;9.10;99.90
770;DHT22;368;48.698;9.116;2023-11-21T10:34:13;9.00;99.90
770;DHT22;368;48.698;9.116;2023-11-21T10:36:39;8.90;99.90
770;DHT22;368;48.698;9.116;2023-11-21T10:39:06;9.00;99.90
770;DHT22;368;48.698;9.116;2023-11-21T10:41:34;8.90;99.90
770;DHT22;368;48.698;9.116;2023-11-21T10:44:01;8.80;99.90
770;DHT22;368;48.698;9.116;2023-11-21T10:46:30;8.70;99.90
770;DHT22;368;48.698;9.116;2023-11-21T10:48:57;8.80;99.90
770;DHT22;368;48.698;9.116;2023-11-21T10:51:23;8.90;99.90
770;DHT22;368;48.698;9.116;2023-11-21T10:53:52;8.80;99.90
770;DHT22;368;48.698;9.116;2023-11-21T10:56:22;8.80;99.90
770;DHT22;368;48.698;9.116;2023-11-21T10:58:51;8.60;99.90
770;DHT22;368;48.698;9.116;2023-11-21T11:01:19;8.90;99.90
770;DHT22;368;48.698;9.116;2023-11-21T11:03:47;8.90;99.90
770;DHT22;368;48.698;9.116;2023-11-21T11:06:15;8.90;99.90
770;DHT22;368;48.698;9.116;2023-11-21T11:08:43;8.90;99.90
770;DHT22;368;48.698;9.116;2023-11-21T11:11:11;9.00;99.90
770;DHT22;368;48.698;9.116;2023-11-21T11:13:43;8.60;99.90
770;DHT22;368;48.698;9.116;2023-11-21T11:16:13;8.60;99.90
770;DHT22;368;48.698;9.116;2023-11-21T11:18:43;9.00;99.90
770;DHT22;368;48.698;9.116;2023-11-21T11:21:20;8.70;99.90
770;DHT22;368;48.698;9.116;2023-11-21T11:24:14;8.80;99.90
770;DHT22;368;48.698;9.116;2023-11-21T11:26:47;8.60;99.90
770;DHT22;368;48.698;9.116;2023-11-21T11:29:25;8.10;99.90
770;DHT22;368;48.698;9.116;2023-11-21T11:32:06;8.10;99.90
770;DHT22;368;48.698;9.116;2023-11-21T11:34:36;8.70;99.90
770;DHT22;368;48.698;9.116;2023-11-21T11:37:07;8.80;99.90
770;DHT22;368;48.698;9.116;2023-11-21T11:39:35;8.80;99.90
770;DHT22;368;48.698;9.116;2023-11-21T11:42:05;8.90;99.90
770;DHT22;368;48.698;9.116;2023-11-21T11:44:51;8.80;99.90
770;DHT22;368;48.698;9.116;2023-11-21T11:47:26;8.80;99.90
770;DHT22;368;48.698;9.116;2023-11-21T11:50:02;8.90;99.90
770;DHT22;368;48.698;9.116;2023-11-21T11:52:33;8.90;99.90
770;DHT22;368;48.698;9.116;2023-11-21T11:55:02;8.50;99.90
770;DHT22;368;48.698;9.116;2023-11-21T11:57:30;8.70;99.90
770;DHT22;368;48.698;9.116;2023-11-21T12:00:08;8.50;99.90
770;DHT22;368;48.698;9.116;2023-11-21T12:02:38;9.20;99.90
770;DHT22;368;48.698;9.116;2023-11-21T12:05:09;9.10;99.90
770;DHT22;368;48.698;9.116;2023-11-21T12:07:46;9.60;99.90
770;DHT22;368;48.698;9.116;2023-11-21T12:10:17;9.90;99.90
770;DHT22;368;48.698;9.116;2023-11-21T12:12:49;10.20;99.90
770;DHT22;368;48.698;9.116;2023-11-21T12:15:16;10.50;99.90
770;DHT22;368;48.698;9.116;2023-11-21T12:17:46;10.60;99.90
770;DHT22;368;48.698;9.116;2023-11-21T12:20:13;10.90;99.90
770;DHT22;368;48.698;9.116;2023-11-21T12:22:44;10.70;99.90
770;DHT22;368;48.698;9.116;2023-11-21T12:25:14;10.70;99.90
770;DHT22;368;48.698;9.116;2023-11-21T12:27:45;10.80;99.90
770;DHT22;368;48.698;9.116;2023-11-21T12:30:12;10.70;99.90
770;DHT22;368;48.698;9.116;2023-11-21T12:32:41;10.60;99.90
770;DHT22;368;48.698;9.116;2023-11-21T12:35:10;10.60;99.90
770;DHT22;368;48.698;9.116;2023-11-21T12:37:38;10.40;99.90
770;DHT22;368;48.698;9.116;2023-11-21T12:40:06;10.50;99.90
770;DHT22;368;48.698;9.116;2023-11-21T12:42:34;10.50;99.90
770;DHT22;368;48.698;9.116;2023-11-21T12:45:09;10.70;99.90
770;DHT22;368;48.698;9.116;2023-11-21T12:47:40;10.90;99.90
770;DHT22;368;48.698;9.116;2023-11-21T12:50:09;10.90;99.90
770;DHT22;368;48.698;9.116;2023-11-21T12:52:41;10.70;99.90
770;DHT22;368;48.698;9.116;2023-11-21T12:55:09;10.50;99.90
770;DHT22;368;48.698;9.116;2023-11-21T12:57:41;10.30;99.90
770;DHT22;368;48.698;9.116;2023-11-21T13:00:10;10.20;99.90
770;DHT22;368;48.698;9.116;2023-11-21T13:02:51;10.30;99.90
770;DHT22;368;48.698;9.116;2023-11-21T13:05:26;10.40;99.90
770;DHT22;368;48.698;9.116;2023-11-21T13:07:53;10.20;99.90
770;DHT22;368;48.698;9.116;2023-11-21T13:10:23;9.70;99.90
770;DHT22;368;48.698;9.116;2023-11-21T13:12:52;9.40;99.90
770;DHT22;368;48.698;9.116;2023-11-21T13:15:20;9.30;99.90
770;DHT22;368;48.698;9.116;2023-11-21T13:17:47;9.50;99.90
770;DHT22;368;48.698;9.116;2023-11-21T13:20:15;9.20;99.90
770;DHT22;368;48.698;9.116;2023-11-21T13:22:48;9.40;99.90
770;DHT22;368;48.698;9.116;2023-11-21T13:25:15;9.10;99.90
770;DHT22;368;48.698;9.116;2023-11-21T13:27:43;9.20;99.90
770;DHT22;368;48.698;9.116;2023-11-21T13:30:12;9.20;99.90
770;DHT22;368;48.698;9.116;2023-11-21T13:32:43;9.50;99.90
770;DHT22;368;48.698;9.116;2023-11-21T13:35:10;9.70;99.90
770;DHT22;368;48.698;9.116;2023-11-21T13:37:49;9.70;99.90
770;DHT22;368;48.698;9.116;2023-11-21T13:40:20;9.80;99.90
770;DHT22;368;48.698;9.116;2023-11-21T13:42:50;9.60;99.90
770;DHT22;368;48.698;9.116;2023-11-21T13:45:20;9.30;99.90
770;DHT22;368;48.698;9.116;2023-11-21T13:47:49;9.20;99.90
770;DHT22;368;48.698;9.116;2023-11-21T13:50:17;8.80;99.90
770;DHT22;368;48.698;9.116;2023-11-21T13:52:49;8.90;99.90
770;DHT22;368;48.698;9.116;2023-11-21T13:55:18;8.70;99.90
770;DHT22;368;48.698;9.116;2023-11-21T13:57:46;8.70;99.90
770;DHT22;368;48.698;9.116;2023-11-21T14:00:16;8.50;99.90
770;DHT22;368;48.698;9.116;2023-11-21T14:02:57;8.50;99.90
770;DHT22;368;48.698;9.116;2023-11-21T14:05:26;8.40;99.90
770;DHT22;368;48.698;9.116;2023-11-21T14:07:56;8.40;99.90
770;DHT22;368;48.698;9.116;2023-11-21T14:10:28;8.40;99.90
770;DHT22;368;48.698;9.116;2023-11-21T14:13:02;8.80;99.90
770;DHT22;368;48.698;9.116;2023-11-21T14:15:31;8.70;99.90
770;DHT22;368;48.698;9.116;2023-11-21T14:17:58;8.80;99.90
770;DHT22;368;48.698;9.116;2023-11-21T14:20:28;8.60;99.90
770;DHT22;368;48.698;9.116;2023-11-21T14:22:57;8.50;99.90
770;DHT22;368;48.698;9.116;2023-11-21T14:25:23;8.80;99.90
770;DHT22;368;48.698;9.116;2023-11-21T14:27:52;8.50;99.90
770;DHT22;368;48.698;9.116;2023-11-21T14:30:19;8.50;99.90
770;DHT22;368;48.698;9.116;2023-11-21T14:32:47;8.30;99.90
770;DHT22;368;48.698;9.116;2023-11-21T14:35:15;8.30;99.90
770;DHT22;368;48.698;9.116;2023-11-21T14:37:42;8.20;99.90
770;DHT22;368;48.698;9.116;2023-11-21T14:40:12;8.20;99.90
770;DHT22;368;48.698;9.116;2023-11-21T14:42:41;8.30;99.90
770;DHT22;368;48.698;9.116;2023-11-21T14:45:10;8.30;99.90
770;DHT22;368;48.698;9.116;2023-11-21T14:47:38;8.20;99.90
770;DHT22;368;48.698;9.116;2023-11-21T14:50:10;8.30;99.90
770;DHT22;368;48.698;9.116;2023-11-21T14:53:04;8.10;99.90
770;DHT22;368;48.698;9.116;2023-11-21T14:55:33;8.20;99.90
770;DHT22;368;48.698;9.116;2023-11-21T14:58:13;8.10;99.90
770;DHT22;368;48.698;9.116;2023-11-21T15:00:44;8.20;99.90
770;DHT22;368;48.698;9.116;2023-11-21T15:03:12;8.30;99.90
770;DHT22;368;48.698;9.116;2023-11-21T15:05:56;8.10;99.90
770;DHT22;368;48.698;9.116;2023-11-21T15:08:23;8.10;99.90
770;DHT22;368;48.698;9.116;2023-11-21T15:10:57;8.10;99.90
770;DHT22;368;48.698;9.116;2023-11-21T15:13:24;8.10;99.90
770;DHT22;368;48.698;9.116;2023-11-21T15:15:53;8.20;99.90
770;DHT22;368;48.698;9.116;2023-11-21T15:18:20;8.00;99.90
770;DHT22;368;48.698;9.116;2023-11-21T15:20:47;8.00;99.90
770;DHT22;368;48.698;9.116;2023-11-21T15:23:14;8.20;99.90
770;DHT22;368;48.698;9.116;2023-11-21T15:25:43;8.20;99.90
770;DHT22;368;48.698;9.116;2023-11-21T15:28:11;7.90;99.90
770;DHT22;368;48.698;9.116;2023-11-21T15:30:38;8.10;99.90
770;DHT22;368;48.698;9.116;2023-11-21T15:33:05;7.90;99.90
770;DHT22;368;48.698;9.116;2023-11-21T15:35:33;7.90;99.90
770;DHT22;368;48.698;9.116;2023-11-21T15:38:03;8.10;99.90
770;DHT22;368;48.698;9.116;2023-11-21T15:40:30;8.00;99.90
770;DHT22;368;48.698;9.116;2023-11-21T15:42:57;7.90;99.90
770;DHT22;368;48.698;9.116;2023-11-21T15:45:25;7.90;99.90
770;DHT22;368;48.698;9.116;2023-11-21T15:47:52;8.10;99.90
770;DHT22;368;48.698;9.116;2023-11-21T15:50:19;8.00;99.90
770;DHT22;368;48.698;9.116;2023-11-21T15:52:46;8.00;99.90
770;DHT22;368;48.698;9.116;2023-11-21T15:55:13;7.90;99.90
770;DHT22;368;48.698;9.116;2023-11-21T15:57:40;7.90;99.90
770;DHT22;368;48.698;9.116;2023-11-21T16:00:09;7.80;99.90
770;DHT22;368;48.698;9.116;2023-11-21T16:02:42;8.00;99.90
770;DHT22;368;48.698;9.116;2023-11-21T16:05:09;8.10;99.90
770;DHT22;368;48.698;9.116;2023-11-21T16:07:39;7.80;99.90
770;DHT22;368;48.698;9.116;2023-11-21T16:10:07;7.70;99.90
770;DHT22;368;48.698;9.116;2023-11-21T16:12:36;7.70;99.90
770;DHT22;368;48.698;9.116;2023-11-21T16:15:04;8.00;99.90
770;DHT22;368;48.698;9.116;2023-11-21T16:17:33;7.80;99.90
770;DHT22;368;48.698;9.116;2023-11-21T16:20:02;7.90;99.90
770;DHT22;368;48.698;9.116;2023-11-21T16:22:31;8.00;99.90
770;DHT22;368;48.698;9.116;2023-11-21T16:24:59;7.70;99.90
770;DHT22;368;48.698;9.116;2023-11-21T16:27:27;7.60;99.90
770;DHT22;368;48.698;9.116;2023-11-21T16:29:53;7.70;99.90
770;DHT22;368;48.698;9.116;2023-11-21T16:32:20;7.70;99.90
770;DHT22;368;48.698;9.116;2023-11-21T16:34:47;7.70;99.90
770;DHT22;368;48.698;9.116;2023-11-21T16:37:16;7.80;99.90
770;DHT22;368;48.698;9.116;2023-11-21T16:39:42;7.80;99.90
770;DHT22;368;48.698;9.116;2023-11-21T16:42:09;7.90;99.90
770;DHT22;368;48.698;9.116;2023-11-21T16:44:36;7.80;99.90
770;DHT22;368;48.698;9.116;2023-11-21T16:47:03;7.60;99.90
770;DHT22;368;48.698;9.116;2023-11-21T16:49:31;7.90;99.90
770;DHT22;368;48.698;9.116;2023-11-21T16:51:58;8.00;99.90
770;DHT22;368;48.698;9.116;2023-11-21T16:54:27;7.70;99.90
770;DHT22;368;48.698;9.116;2023-11-21T16:56:54;8.00;99.90
770;DHT22;368;48.698;9.116;2023-11-21T16:59:21;7.90;99.90